sensor_id;sensor_type;location;lat;lon;timestamp;temperature;humidity
64209;DHT22;50527;52.414;13.226;2022-09-29T00:01:49;8.50;99.90
64209;DHT22;50527;52.414;13.226;2022-09-29T00:04:14;8.40;99.90
64209;DHT22;50527;52.414;13.226;2022-09-29T00:06:40;8.50;99.90
64209;DHT22;50527;52.414;13.226;2022-09-29T00:09:05;8.50;99.90
64209;DHT22;50527;52.414;13.226;2022-09-29T00:11:31;8.50;99.90
64209;DHT22;50527;52.414;13.226;2022-09-29T00:13:56;8.50;99.90
64209;DHT22;50527;52.414;13.226;2022-09-29T00:16:21;8.50;99.90
64209;DHT22;50527;52.414;13.226;2022-09-29T00:18:47;8.50;99.90
64209;DHT22;50527;52.414;13.226;2022-09-29T00:21:15;8.50;99.90
64209;DHT22;50527;52.414;13.226;2022-09-29T00:23:41;8.50;99.90
64209;DHT22;50527;52.414;13.226;2022-09-29T00:26:21;8.40;99.90
64209;DHT22;50527;52.414;13.226;2022-09-29T00:28:55;8.40;99.90
64209;DHT22;50527;52.414;13.226;2022-09-29T00:31:22;8.40;99.90
64209;DHT22;50527;52.414;13.226;2022-09-29T00:33:48;8.40;99.90
64209;DHT22;50527;52.414;13.226;2022-09-29T00:36:16;8.40;99.90
64209;DHT22;50527;52.414;13.226;2022-09-29T00:38:43;8.40;99.90
64209;DHT22;50527;52.414;13.226;2022-09-29T00:41:13;8.50;99.90
64209;DHT22;50527;52.414;13.226;2022-09-29T00:43:49;8.50;99.90
64209;DHT22;50527;52.414;13.226;2022-09-29T00:49:00;8.40;99.90
64209;DHT22;50527;52.414;13.226;2022-09-29T00:51:28;8.40;99.90
64209;DHT22;50527;52.414;13.226;2022-09-29T00:53:56;8.40;99.90
64209;DHT22;50527;52.414;13.226;2022-09-29T00:56:22;8.40;99.90
64209;DHT22;50527;52.414;13.226;2022-09-29T00:58:52;8.30;99.90
64209;DHT22;50527;52.414;13.226;2022-09-29T01:01:23;8.30;99.90
64209;DHT22;50527;52.414;13.226;2022-09-29T01:03:52;8.20;99.90
64209;DHT22;50527;52.414;13.226;2022-09-29T01:06:22;8.20;99.90
64209;DHT22;50527;52.414;13.226;2022-09-29T01:09:03;8.20;99.90
64209;DHT22;50527;52.414;13.226;2022-09-29T01:11:30;8.10;99.90
64209;DHT22;50527;52.414;13.226;2022-09-29T01:13:56;8.10;99.90
64209;DHT22;50527;52.414;13.226;2022-09-29T01:16:28;8.10;99.90
64209;DHT22;50527;52.414;13.226;2022-09-29T01:18:53;8.10;99.90
64209;DHT22;50527;52.414;13.226;2022-09-29T01:21:49;8.00;99.90
64209;DHT22;50527;52.414;13.226;2022-09-29T01:27:18;8.00;99.90
64209;DHT22;50527;52.414;13.226;2022-09-29T01:30:09;8.00;99.90
64209;DHT22;50527;52.414;13.226;2022-09-29T01:33:01;8.00;99.90
64209;DHT22;50527;52.414;13.226;2022-09-29T01:38:21;8.00;99.90
64209;DHT22;50527;52.414;13.226;2022-09-29T01:41:05;8.00;99.90
64209;DHT22;50527;52.414;13.226;2022-09-29T01:43:34;8.00;99.90
64209;DHT22;50527;52.414;13.226;2022-09-29T01:46:05;8.00;99.90
64209;DHT22;50527;52.414;13.226;2022-09-29T01:48:50;8.10;99.90
64209;DHT22;50527;52.414;13.226;2022-09-29T01:51:21;8.10;99.90
64209;DHT22;50527;52.414;13.226;2022-09-29T01:53:51;8.10;99.90
64209;DHT22;50527;52.414;13.226;2022-09-29T01:56:31;8.10;99.90
64209;DHT22;50527;52.414;13.226;2022-09-29T01:59:06;8.20;99.90
64209;DHT22;50527;52.414;13.226;2022-09-29T02:01:37;8.20;99.90
64209;DHT22;50527;52.414;13.226;2022-09-29T02:04:22;8.20;99.90
64209;DHT22;50527;52.414;13.226;2022-09-29T02:06:55;8.10;99.90
64209;DHT22;50527;52.414;13.226;2022-09-29T02:09:27;8.10;99.90
64209;DHT22;50527;52.414;13.226;2022-09-29T02:11:55;8.10;99.90
64209;DHT22;50527;52.414;13.226;2022-09-29T02:14:25;8.10;99.90
64209;DHT22;50527;52.414;13.226;2022-09-29T02:16:56;8.20;99.90
64209;DHT22;50527;52.414;13.226;2022-09-29T02:19:31;8.10;99.90
64209;DHT22;50527;52.414;13.226;2022-09-29T02:21:57;8.20;99.90
64209;DHT22;50527;52.414;13.226;2022-09-29T02:24:23;8.20;99.90
64209;DHT22;50527;52.414;13.226;2022-09-29T02:26:50;8.20;99.90
64209;DHT22;50527;52.414;13.226;2022-09-29T02:29:16;8.20;99.90
64209;DHT22;50527;52.414;13.226;2022-09-29T02:31:43;8.30;99.90
64209;DHT22;50527;52.414;13.226;2022-09-29T02:34:12;8.30;99.90
64209;DHT22;50527;52.414;13.226;2022-09-29T02:37:04;8.30;99.90
64209;DHT22;50527;52.414;13.226;2022-09-29T02:40:03;8.40;99.90
64209;DHT22;50527;52.414;13.226;2022-09-29T02:42:43;8.30;99.90
64209;DHT22;50527;52.414;13.226;2022-09-29T02:53:58;8.40;99.90
64209;DHT22;50527;52.414;13.226;2022-09-29T03:01:50;8.40;99.90
64209;DHT22;50527;52.414;13.226;2022-09-29T03:04:17;8.40;99.90
64209;DHT22;50527;52.414;13.226;2022-09-29T03:06:43;8.40;99.90
64209;DHT22;50527;52.414;13.226;2022-09-29T03:09:08;8.40;99.90
64209;DHT22;50527;52.414;13.226;2022-09-29T03:11:34;8.50;99.90
64209;DHT22;50527;52.414;13.226;2022-09-29T03:13:59;8.40;99.90
64209;DHT22;50527;52.414;13.226;2022-09-29T03:16:25;8.50;99.90
64209;DHT22;50527;52.414;13.226;2022-09-29T03:18:51;8.50;99.90
64209;DHT22;50527;52.414;13.226;2022-09-29T03:21:17;8.40;99.90
64209;DHT22;50527;52.414;13.226;2022-09-29T03:23:42;8.40;99.90
64209;DHT22;50527;52.414;13.226;2022-09-29T03:26:08;8.50;99.90
64209;DHT22;50527;52.414;13.226;2022-09-29T03:28:33;8.50;99.90
64209;DHT22;50527;52.414;13.226;2022-09-29T03:31:04;8.50;99.90
64209;DHT22;50527;52.414;13.226;2022-09-29T03:33:30;8.50;99.90
64209;DHT22;50527;52.414;13.226;2022-09-29T03:35:55;8.50;99.90
64209;DHT22;50527;52.414;13.226;2022-09-29T03:38:21;8.50;99.90
64209;DHT22;50527;52.414;13.226;2022-09-29T03:40:46;8.50;99.90
64209;DHT22;50527;52.414;13.226;2022-09-29T03:43:11;8.50;99.90
64209;DHT22;50527;52.414;13.226;2022-09-29T03:45:37;8.50;99.90
64209;DHT22;50527;52.414;13.226;2022-09-29T03:48:02;8.50;99.90
64209;DHT22;50527;52.414;13.226;2022-09-29T03:50:28;8.50;99.90
64209;DHT22;50527;52.414;13.226;2022-09-29T03:52:53;8.50;99.90
64209;DHT22;50527;52.414;13.226;2022-09-29T03:55:19;8.50;99.90
64209;DHT22;50527;52.414;13.226;2022-09-29T03:57:45;8.50;99.90
64209;DHT22;50527;52.414;13.226;2022-09-29T04:00:11;8.40;99.90
64209;DHT22;50527;52.414;13.226;2022-09-29T04:02:36;8.50;99.90
64209;DHT22;50527;52.414;13.226;2022-09-29T04:05:02;8.40;99.90
64209;DHT22;50527;52.414;13.226;2022-09-29T04:07:27;8.40;99.90
64209;DHT22;50527;52.414;13.226;2022-09-29T04:09:53;8.40;99.90
64209;DHT22;50527;52.414;13.226;2022-09-29T04:12:18;8.40;99.90
64209;DHT22;50527;52.414;13.226;2022-09-29T04:14:44;8.30;99.90
64209;DHT22;50527;52.414;13.226;2022-09-29T04:17:09;8.40;99.90
64209;DHT22;50527;52.414;13.226;2022-09-29T04:19:35;8.30;99.90
64209;DHT22;50527;52.414;13.226;2022-09-29T04:22:00;8.30;99.90
64209;DHT22;50527;52.414;13.226;2022-09-29T04:24:26;8.30;99.90
64209;DHT22;50527;52.414;13.226;2022-09-29T04:26:51;8.40;99.90
64209;DHT22;50527;52.414;13.226;2022-09-29T04:29:16;8.30;99.90
64209;DHT22;50527;52.414;13.226;2022-09-29T04:31:42;8.30;99.90
64209;DHT22;50527;52.414;13.226;2022-09-29T04:34:07;8.40;99.90
64209;DHT22;50527;52.414;13.226;2022-09-29T04:36:33;8.40;99.90
64209;DHT22;50527;52.414;13.226;2022-09-29T04:38:58;8.40;99.90
64209;DHT22;50527;52.414;13.226;2022-09-29T04:41:24;8.40;99.90
64209;DHT22;50527;52.414;13.226;2022-09-29T04:43:49;8.40;99.90
64209;DHT22;50527;52.414;13.226;2022-09-29T04:46:15;8.40;99.90
64209;DHT22;50527;52.414;13.226;2022-09-29T04:48:40;8.40;99.90
64209;DHT22;50527;52.414;13.226;2022-09-29T04:51:06;8.40;99.90
64209;DHT22;50527;52.414;13.226;2022-09-29T04:53:32;8.40;99.90
64209;DHT22;50527;52.414;13.226;2022-09-29T04:55:57;8.40;99.90
64209;DHT22;50527;52.414;13.226;2022-09-29T04:58:23;8.30;99.90
64209;DHT22;50527;52.414;13.226;2022-09-29T05:00:49;8.30;99.90
64209;DHT22;50527;52.414;13.226;2022-09-29T05:03:14;8.40;99.90
64209;DHT22;50527;52.414;13.226;2022-09-29T05:05:39;8.40;99.90
64209;DHT22;50527;52.414;13.226;2022-09-29T05:08:05;8.40;99.90
64209;DHT22;50527;52.414;13.226;2022-09-29T05:10:31;8.40;99.90
64209;DHT22;50527;52.414;13.226;2022-09-29T05:12:56;8.40;99.90
64209;DHT22;50527;52.414;13.226;2022-09-29T05:15:22;8.40;99.90
64209;DHT22;50527;52.414;13.226;2022-09-29T05:17:47;8.40;99.90
64209;DHT22;50527;52.414;13.226;2022-09-29T05:20:13;8.40;99.90
64209;DHT22;50527;52.414;13.226;2022-09-29T05:22:39;8.30;99.90
64209;DHT22;50527;52.414;13.226;2022-09-29T05:25:05;8.30;99.90
64209;DHT22;50527;52.414;13.226;2022-09-29T05:27:33;8.40;99.90
64209;DHT22;50527;52.414;13.226;2022-09-29T05:29:59;8.30;99.90
64209;DHT22;50527;52.414;13.226;2022-09-29T05:32:24;8.40;99.90
64209;DHT22;50527;52.414;13.226;2022-09-29T05:34:50;8.40;99.90
64209;DHT22;50527;52.414;13.226;2022-09-29T05:37:15;8.40;99.90
64209;DHT22;50527;52.414;13.226;2022-09-29T05:39:42;8.40;99.90
64209;DHT22;50527;52.414;13.226;2022-09-29T05:42:10;8.30;99.90
64209;DHT22;50527;52.414;13.226;2022-09-29T05:44:36;8.40;99.90
64209;DHT22;50527;52.414;13.226;2022-09-29T05:47:01;8.40;99.90
64209;DHT22;50527;52.414;13.226;2022-09-29T05:49:27;8.40;99.90
64209;DHT22;50527;52.414;13.226;2022-09-29T05:51:53;8.40;99.90
64209;DHT22;50527;52.414;13.226;2022-09-29T05:54:18;8.50;99.90
64209;DHT22;50527;52.414;13.226;2022-09-29T05:56:44;8.50;99.90
64209;DHT22;50527;52.414;13.226;2022-09-29T05:59:09;8.50;99.90
64209;DHT22;50527;52.414;13.226;2022-09-29T06:01:35;8.50;99.90
64209;DHT22;50527;52.414;13.226;2022-09-29T06:04:01;8.50;99.90
64209;DHT22;50527;52.414;13.226;2022-09-29T06:06:27;8.60;99.90
64209;DHT22;50527;52.414;13.226;2022-09-29T06:08:54;8.60;99.90
64209;DHT22;50527;52.414;13.226;2022-09-29T06:11:21;8.70;99.90
64209;DHT22;50527;52.414;13.226;2022-09-29T06:13:49;8.70;99.90
64209;DHT22;50527;52.414;13.226;2022-09-29T06:16:16;8.70;99.90
64209;DHT22;50527;52.414;13.226;2022-09-29T06:18:44;8.70;99.90
64209;DHT22;50527;52.414;13.226;2022-09-29T06:21:12;8.70;99.90
64209;DHT22;50527;52.414;13.226;2022-09-29T06:23:37;8.70;99.90
64209;DHT22;50527;52.414;13.226;2022-09-29T06:26:09;8.80;99.90
64209;DHT22;50527;52.414;13.226;2022-09-29T06:28:35;8.80;99.90
64209;DHT22;50527;52.414;13.226;2022-09-29T06:31:03;8.80;99.90
64209;DHT22;50527;52.414;13.226;2022-09-29T06:33:30;8.80;99.90
64209;DHT22;50527;52.414;13.226;2022-09-29T06:35:57;8.80;99.90
64209;DHT22;50527;52.414;13.226;2022-09-29T06:38:41;8.80;99.90
64209;DHT22;50527;52.414;13.226;2022-09-29T06:41:07;8.80;99.90
64209;DHT22;50527;52.414;13.226;2022-09-29T06:43:33;8.80;99.90
64209;DHT22;50527;52.414;13.226;2022-09-29T06:45:59;8.80;99.90
64209;DHT22;50527;52.414;13.226;2022-09-29T06:48:25;8.80;99.90
64209;DHT22;50527;52.414;13.226;2022-09-29T06:50:50;8.80;99.90
64209;DHT22;50527;52.414;13.226;2022-09-29T06:53:16;8.70;99.90
64209;DHT22;50527;52.414;13.226;2022-09-29T06:55:41;8.80;99.90
64209;DHT22;50527;52.414;13.226;2022-09-29T06:58:07;8.80;99.90
64209;DHT22;50527;52.414;13.226;2022-09-29T07:00:33;8.80;99.90
64209;DHT22;50527;52.414;13.226;2022-09-29T07:02:59;8.80;99.90
64209;DHT22;50527;52.414;13.226;2022-09-29T07:05:25;8.90;99.90
64209;DHT22;50527;52.414;13.226;2022-09-29T07:07:50;8.90;99.90
64209;DHT22;50527;52.414;13.226;2022-09-29T07:10:16;8.90;99.90
64209;DHT22;50527;52.414;13.226;2022-09-29T07:12:41;9.00;99.90
64209;DHT22;50527;52.414;13.226;2022-09-29T07:15:09;9.00;99.90
64209;DHT22;50527;52.414;13.226;2022-09-29T07:17:35;9.10;99.90
64209;DHT22;50527;52.414;13.226;2022-09-29T07:20:00;9.10;99.90
64209;DHT22;50527;52.414;13.226;2022-09-29T07:22:26;9.10;99.90
64209;DHT22;50527;52.414;13.226;2022-09-29T07:24:51;9.10;99.90
64209;DHT22;50527;52.414;13.226;2022-09-29T07:27:19;9.20;99.90
64209;DHT22;50527;52.414;13.226;2022-09-29T07:29:51;9.20;99.90
64209;DHT22;50527;52.414;13.226;2022-09-29T07:32:17;9.20;99.90
64209;DHT22;50527;52.414;13.226;2022-09-29T07:34:43;9.30;99.90
64209;DHT22;50527;52.414;13.226;2022-09-29T07:37:09;9.30;99.90
64209;DHT22;50527;52.414;13.226;2022-09-29T07:39:34;9.30;99.90
64209;DHT22;50527;52.414;13.226;2022-09-29T07:42:00;9.50;99.90
64209;DHT22;50527;52.414;13.226;2022-09-29T07:44:25;9.50;99.90
64209;DHT22;50527;52.414;13.226;2022-09-29T07:46:51;9.60;99.90
64209;DHT22;50527;52.414;13.226;2022-09-29T07:49:17;9.60;99.90
64209;DHT22;50527;52.414;13.226;2022-09-29T07:51:42;9.70;99.90
64209;DHT22;50527;52.414;13.226;2022-09-29T07:54:08;9.70;99.90
64209;DHT22;50527;52.414;13.226;2022-09-29T07:56:34;9.80;99.90
64209;DHT22;50527;52.414;13.226;2022-09-29T07:59:00;9.80;99.90
64209;DHT22;50527;52.414;13.226;2022-09-29T08:01:27;9.90;99.90
64209;DHT22;50527;52.414;13.226;2022-09-29T08:03:54;9.90;99.80
64209;DHT22;50527;52.414;13.226;2022-09-29T08:06:21;9.90;99.80
64209;DHT22;50527;52.414;13.226;2022-09-29T08:08:47;10.00;99.90
64209;DHT22;50527;52.414;13.226;2022-09-29T08:11:15;10.00;99.80
64209;DHT22;50527;52.414;13.226;2022-09-29T08:13:41;10.00;99.40
64209;DHT22;50527;52.414;13.226;2022-09-29T08:16:10;10.10;99.80
64209;DHT22;50527;52.414;13.226;2022-09-29T08:18:36;10.10;99.90
64209;DHT22;50527;52.414;13.226;2022-09-29T08:21:03;10.10;99.20
64209;DHT22;50527;52.414;13.226;2022-09-29T08:23:30;10.10;98.80
64209;DHT22;50527;52.414;13.226;2022-09-29T08:26:07;10.10;99.20
64209;DHT22;50527;52.414;13.226;2022-09-29T08:28:34;10.20;99.70
64209;DHT22;50527;52.414;13.226;2022-09-29T08:31:01;10.30;99.10
64209;DHT22;50527;52.414;13.226;2022-09-29T08:33:27;10.40;99.30
64209;DHT22;50527;52.414;13.226;2022-09-29T08:35:56;10.50;98.30
64209;DHT22;50527;52.414;13.226;2022-09-29T08:38:23;10.50;97.50
64209;DHT22;50527;52.414;13.226;2022-09-29T08:40:49;10.60;97.60
64209;DHT22;50527;52.414;13.226;2022-09-29T08:43:35;10.60;97.10
64209;DHT22;50527;52.414;13.226;2022-09-29T08:46:23;10.80;96.40
64209;DHT22;50527;52.414;13.226;2022-09-29T08:48:50;10.80;96.30
64209;DHT22;50527;52.414;13.226;2022-09-29T08:51:25;11.00;96.00
64209;DHT22;50527;52.414;13.226;2022-09-29T08:53:55;11.00;95.50
64209;DHT22;50527;52.414;13.226;2022-09-29T08:56:24;11.10;95.30
64209;DHT22;50527;52.414;13.226;2022-09-29T08:58:50;11.10;95.70
64209;DHT22;50527;52.414;13.226;2022-09-29T09:01:37;11.10;94.60
64209;DHT22;50527;52.414;13.226;2022-09-29T09:04:29;11.20;95.00
64209;DHT22;50527;52.414;13.226;2022-09-29T09:15:17;11.70;92.60
64209;DHT22;50527;52.414;13.226;2022-09-29T09:26:00;12.30;91.50
64209;DHT22;50527;52.414;13.226;2022-09-29T09:28:32;12.50;91.00
64209;DHT22;50527;52.414;13.226;2022-09-29T09:31:07;12.60;87.90
64209;DHT22;50527;52.414;13.226;2022-09-29T09:33:51;12.70;87.70
64209;DHT22;50527;52.414;13.226;2022-09-29T09:36:24;12.80;86.30
64209;DHT22;50527;52.414;13.226;2022-09-29T09:41:36;13.60;82.40
64209;DHT22;50527;52.414;13.226;2022-09-29T09:44:13;13.90;79.10
64209;DHT22;50527;52.414;13.226;2022-09-29T09:46:49;14.40;75.50
64209;DHT22;50527;52.414;13.226;2022-09-29T09:49:25;14.40;75.00
64209;DHT22;50527;52.414;13.226;2022-09-29T09:51:59;14.40;74.20
64209;DHT22;50527;52.414;13.226;2022-09-29T09:54:30;14.50;75.00
64209;DHT22;50527;52.414;13.226;2022-09-29T09:57:15;14.30;76.00
64209;DHT22;50527;52.414;13.226;2022-09-29T10:00:12;14.10;78.60
64209;DHT22;50527;52.414;13.226;2022-09-29T10:02:50;14.10;76.50
64209;DHT22;50527;52.414;13.226;2022-09-29T10:05:20;14.30;74.30
64209;DHT22;50527;52.414;13.226;2022-09-29T10:07:49;14.30;72.30
64209;DHT22;50527;52.414;13.226;2022-09-29T10:10:21;14.30;71.70
64209;DHT22;50527;52.414;13.226;2022-09-29T10:13:11;14.20;72.40
64209;DHT22;50527;52.414;13.226;2022-09-29T10:15:55;14.30;72.50
64209;DHT22;50527;52.414;13.226;2022-09-29T10:18:35;14.20;73.30
64209;DHT22;50527;52.414;13.226;2022-09-29T10:21:01;13.90;74.10
64209;DHT22;50527;52.414;13.226;2022-09-29T10:23:32;13.50;76.00
64209;DHT22;50527;52.414;13.226;2022-09-29T10:26:13;13.50;74.30
64209;DHT22;50527;52.414;13.226;2022-09-29T10:31:25;13.60;75.30
64209;DHT22;50527;52.414;13.226;2022-09-29T10:34:01;14.00;72.90
64209;DHT22;50527;52.414;13.226;2022-09-29T10:36:49;14.40;71.90
64209;DHT22;50527;52.414;13.226;2022-09-29T10:41:59;14.80;68.00
64209;DHT22;50527;52.414;13.226;2022-09-29T10:44:30;14.90;68.00
64209;DHT22;50527;52.414;13.226;2022-09-29T10:46:56;15.10;67.50
64209;DHT22;50527;52.414;13.226;2022-09-29T10:49:23;15.30;67.50
64209;DHT22;50527;52.414;13.226;2022-09-29T10:51:55;15.20;64.30
64209;DHT22;50527;52.414;13.226;2022-09-29T10:54:22;14.80;64.40
64209;DHT22;50527;52.414;13.226;2022-09-29T10:56:50;14.60;66.90
64209;DHT22;50527;52.414;13.226;2022-09-29T10:59:17;14.30;66.80
64209;DHT22;50527;52.414;13.226;2022-09-29T11:01:46;14.20;68.50
64209;DHT22;50527;52.414;13.226;2022-09-29T11:04:27;14.00;69.90
64209;DHT22;50527;52.414;13.226;2022-09-29T11:06:54;13.90;70.00
64209;DHT22;50527;52.414;13.226;2022-09-29T11:16:54;13.50;70.70
64209;DHT22;50527;52.414;13.226;2022-09-29T11:19:20;13.40;73.00
64209;DHT22;50527;52.414;13.226;2022-09-29T11:22:33;13.40;73.20
64209;DHT22;50527;52.414;13.226;2022-09-29T11:30:54;14.10;71.70
64209;DHT22;50527;52.414;13.226;2022-09-29T11:36:11;15.00;65.30
64209;DHT22;50527;52.414;13.226;2022-09-29T11:41:48;15.80;63.70
64209;DHT22;50527;52.414;13.226;2022-09-29T11:44:25;16.10;61.20
64209;DHT22;50527;52.414;13.226;2022-09-29T12:00:41;15.50;61.20
64209;DHT22;50527;52.414;13.226;2022-09-29T12:03:27;15.30;63.30
64209;DHT22;50527;52.414;13.226;2022-09-29T12:06:18;15.00;62.50
64209;DHT22;50527;52.414;13.226;2022-09-29T12:12:07;14.40;65.70
64209;DHT22;50527;52.414;13.226;2022-09-29T12:14:57;14.20;64.70
64209;DHT22;50527;52.414;13.226;2022-09-29T12:17:27;14.10;66.10
64209;DHT22;50527;52.414;13.226;2022-09-29T12:20:05;14.00;67.00
64209;DHT22;50527;52.414;13.226;2022-09-29T12:22:31;13.80;68.50
64209;DHT22;50527;52.414;13.226;2022-09-29T12:24:58;13.80;69.80
64209;DHT22;50527;52.414;13.226;2022-09-29T12:27:28;13.70;71.40
64209;DHT22;50527;52.414;13.226;2022-09-29T12:30:14;13.70;69.60
64209;DHT22;50527;52.414;13.226;2022-09-29T12:32:56;13.80;69.20
64209;DHT22;50527;52.414;13.226;2022-09-29T12:35:38;13.70;70.70
64209;DHT22;50527;52.414;13.226;2022-09-29T12:38:16;13.80;70.40
64209;DHT22;50527;52.414;13.226;2022-09-29T12:41:13;13.80;68.70
64209;DHT22;50527;52.414;13.226;2022-09-29T12:46:24;13.70;67.50
64209;DHT22;50527;52.414;13.226;2022-09-29T12:48:58;13.60;64.20
64209;DHT22;50527;52.414;13.226;2022-09-29T12:51:32;13.60;66.50
64209;DHT22;50527;52.414;13.226;2022-09-29T12:59:34;13.60;67.20
64209;DHT22;50527;52.414;13.226;2022-09-29T13:05:05;13.60;70.70
64209;DHT22;50527;52.414;13.226;2022-09-29T13:13:29;13.80;69.20
64209;DHT22;50527;52.414;13.226;2022-09-29T13:16:11;13.80;67.00
64209;DHT22;50527;52.414;13.226;2022-09-29T13:21:50;13.90;64.80
64209;DHT22;50527;52.414;13.226;2022-09-29T13:27:15;13.90;71.20
64209;DHT22;50527;52.414;13.226;2022-09-29T13:29:54;13.90;70.40
64209;DHT22;50527;52.414;13.226;2022-09-29T13:32:20;13.90;69.30
64209;DHT22;50527;52.414;13.226;2022-09-29T13:34:56;13.90;69.10
64209;DHT22;50527;52.414;13.226;2022-09-29T13:37:24;13.80;68.10
64209;DHT22;50527;52.414;13.226;2022-09-29T13:39:54;13.80;68.70
64209;DHT22;50527;52.414;13.226;2022-09-29T13:42:40;13.90;66.80
64209;DHT22;50527;52.414;13.226;2022-09-29T13:47:52;13.90;65.80
64209;DHT22;50527;52.414;13.226;2022-09-29T13:50:47;13.90;66.10
64209;DHT22;50527;52.414;13.226;2022-09-29T13:53:34;13.90;66.10
64209;DHT22;50527;52.414;13.226;2022-09-29T13:58:59;14.00;67.00
64209;DHT22;50527;52.414;13.226;2022-09-29T14:01:32;14.00;64.70
64209;DHT22;50527;52.414;13.226;2022-09-29T14:07:04;13.90;64.00
64209;DHT22;50527;52.414;13.226;2022-09-29T14:09:33;13.90;65.40
64209;DHT22;50527;52.414;13.226;2022-09-29T14:12:06;13.90;65.50
64209;DHT22;50527;52.414;13.226;2022-09-29T14:14:39;14.00;65.30
64209;DHT22;50527;52.414;13.226;2022-09-29T14:17:15;14.00;63.50
64209;DHT22;50527;52.414;13.226;2022-09-29T14:20:14;14.10;64.00
64209;DHT22;50527;52.414;13.226;2022-09-29T14:22:53;14.10;63.50
64209;DHT22;50527;52.414;13.226;2022-09-29T14:27:46;14.10;63.60
64209;DHT22;50527;52.414;13.226;2022-09-29T14:30:38;14.10;64.80
64209;DHT22;50527;52.414;13.226;2022-09-29T14:38:23;14.10;63.90
64209;DHT22;50527;52.414;13.226;2022-09-29T14:40:58;14.20;64.10
64209;DHT22;50527;52.414;13.226;2022-09-29T14:43:47;14.10;63.20
64209;DHT22;50527;52.414;13.226;2022-09-29T14:49:53;14.00;62.50
64209;DHT22;50527;52.414;13.226;2022-09-29T14:55:30;13.90;65.40
64209;DHT22;50527;52.414;13.226;2022-09-29T14:58:26;13.90;66.40
64209;DHT22;50527;52.414;13.226;2022-09-29T15:01:15;13.90;64.50
64209;DHT22;50527;52.414;13.226;2022-09-29T15:03:47;13.90;65.40
64209;DHT22;50527;52.414;13.226;2022-09-29T15:06:14;13.90;65.00
64209;DHT22;50527;52.414;13.226;2022-09-29T15:08:43;13.90;66.40
64209;DHT22;50527;52.414;13.226;2022-09-29T15:11:34;13.90;67.60
64209;DHT22;50527;52.414;13.226;2022-09-29T15:14:27;13.90;68.50
64209;DHT22;50527;52.414;13.226;2022-09-29T15:19:56;13.80;68.70
64209;DHT22;50527;52.414;13.226;2022-09-29T15:22:44;13.70;68.90
64209;DHT22;50527;52.414;13.226;2022-09-29T15:28:05;13.60;67.60
64209;DHT22;50527;52.414;13.226;2022-09-29T15:30:34;13.60;68.70
64209;DHT22;50527;52.414;13.226;2022-09-29T15:35:42;13.60;74.70
64209;DHT22;50527;52.414;13.226;2022-09-29T15:38:16;13.60;76.80
64209;DHT22;50527;52.414;13.226;2022-09-29T15:40:42;13.60;76.70
64209;DHT22;50527;52.414;13.226;2022-09-29T15:43:21;13.60;77.40
64209;DHT22;50527;52.414;13.226;2022-09-29T15:46:02;13.60;79.50
64209;DHT22;50527;52.414;13.226;2022-09-29T15:48:36;13.70;78.20
64209;DHT22;50527;52.414;13.226;2022-09-29T15:51:02;13.70;76.90
64209;DHT22;50527;52.414;13.226;2022-09-29T15:53:28;13.80;77.60
64209;DHT22;50527;52.414;13.226;2022-09-29T15:55:55;13.80;74.80
64209;DHT22;50527;52.414;13.226;2022-09-29T15:58:35;13.70;73.50
64209;DHT22;50527;52.414;13.226;2022-09-29T16:01:06;13.70;75.90
64209;DHT22;50527;52.414;13.226;2022-09-29T16:03:53;13.60;75.20
64209;DHT22;50527;52.414;13.226;2022-09-29T16:06:27;13.50;77.00
64209;DHT22;50527;52.414;13.226;2022-09-29T16:08:57;13.40;77.70
64209;DHT22;50527;52.414;13.226;2022-09-29T16:11:27;13.30;78.70
64209;DHT22;50527;52.414;13.226;2022-09-29T16:14:17;13.20;79.30
64209;DHT22;50527;52.414;13.226;2022-09-29T16:16:46;13.10;79.20
64209;DHT22;50527;52.414;13.226;2022-09-29T16:19:15;13.10;79.70
64209;DHT22;50527;52.414;13.226;2022-09-29T16:21:42;12.90;78.70
64209;DHT22;50527;52.414;13.226;2022-09-29T16:24:19;12.90;79.70
64209;DHT22;50527;52.414;13.226;2022-09-29T16:26:47;12.80;80.00
64209;DHT22;50527;52.414;13.226;2022-09-29T16:31:52;12.60;83.10
64209;DHT22;50527;52.414;13.226;2022-09-29T16:39:20;12.30;84.70
64209;DHT22;50527;52.414;13.226;2022-09-29T16:41:48;12.20;84.00
64209;DHT22;50527;52.414;13.226;2022-09-29T16:44:17;12.10;85.20
64209;DHT22;50527;52.414;13.226;2022-09-29T16:46:50;12.10;85.30
64209;DHT22;50527;52.414;13.226;2022-09-29T16:49:22;12.00;86.10
64209;DHT22;50527;52.414;13.226;2022-09-29T16:51:50;11.90;86.70
64209;DHT22;50527;52.414;13.226;2022-09-29T16:54:26;11.80;87.70
64209;DHT22;50527;52.414;13.226;2022-09-29T16:57:14;11.70;86.60
64209;DHT22;50527;52.414;13.226;2022-09-29T16:59:44;11.70;88.10
64209;DHT22;50527;52.414;13.226;2022-09-29T17:02:11;11.60;88.20
64209;DHT22;50527;52.414;13.226;2022-09-29T17:04:36;11.50;88.00
64209;DHT22;50527;52.414;13.226;2022-09-29T17:07:02;11.40;88.20
64209;DHT22;50527;52.414;13.226;2022-09-29T17:09:28;11.40;90.20
64209;DHT22;50527;52.414;13.226;2022-09-29T17:11:54;11.30;90.50
64209;DHT22;50527;52.414;13.226;2022-09-29T17:14:20;11.20;90.50
64209;DHT22;50527;52.414;13.226;2022-09-29T17:16:48;11.20;90.80
64209;DHT22;50527;52.414;13.226;2022-09-29T17:19:17;11.10;90.90
64209;DHT22;50527;52.414;13.226;2022-09-29T17:21:43;11.10;90.80
64209;DHT22;50527;52.414;13.226;2022-09-29T17:24:09;11.00;91.40
64209;DHT22;50527;52.414;13.226;2022-09-29T17:26:37;10.90;91.30
64209;DHT22;50527;52.414;13.226;2022-09-29T17:29:22;10.90;91.90
64209;DHT22;50527;52.414;13.226;2022-09-29T17:31:48;10.80;92.20
64209;DHT22;50527;52.414;13.226;2022-09-29T17:34:13;10.70;92.10
64209;DHT22;50527;52.414;13.226;2022-09-29T17:36:39;10.70;92.20
64209;DHT22;50527;52.414;13.226;2022-09-29T17:39:05;10.60;92.60
64209;DHT22;50527;52.414;13.226;2022-09-29T17:41:30;10.60;92.80
64209;DHT22;50527;52.414;13.226;2022-09-29T17:43:56;10.60;93.10
64209;DHT22;50527;52.414;13.226;2022-09-29T17:46:22;10.50;93.50
64209;DHT22;50527;52.414;13.226;2022-09-29T17:48:47;10.50;93.70
64209;DHT22;50527;52.414;13.226;2022-09-29T17:51:15;10.40;93.80
64209;DHT22;50527;52.414;13.226;2022-09-29T17:53:43;10.40;94.00
64209;DHT22;50527;52.414;13.226;2022-09-29T17:56:23;10.30;94.00
64209;DHT22;50527;52.414;13.226;2022-09-29T17:58:53;10.30;94.40
64209;DHT22;50527;52.414;13.226;2022-09-29T18:01:21;10.20;94.40
64209;DHT22;50527;52.414;13.226;2022-09-29T18:03:48;10.20;95.10
64209;DHT22;50527;52.414;13.226;2022-09-29T18:06:17;10.20;94.90
64209;DHT22;50527;52.414;13.226;2022-09-29T18:08:46;10.20;94.80
64209;DHT22;50527;52.414;13.226;2022-09-29T18:11:12;10.10;94.90